createdAt,value
2018-11-25T00:00:43.670Z,7.93
2018-11-25T00:05:37.068Z,8.50
2018-11-25T00:10:48.571Z,8.50
2018-11-25T00:15:41.953Z,7.07
2018-11-25T00:20:35.317Z,7.80
2018-11-25T00:25:28.723Z,8.13
2018-11-25T00:30:22.163Z,7.30
2018-11-25T00:35:16.041Z,8.30
2018-11-25T00:40:10.076Z,8.50
2018-11-25T00:45:03.664Z,7.43
2018-11-25T00:49:57.067Z,8.20
2018-11-25T00:54:50.467Z,7.60
2018-11-25T00:59:43.857Z,7.90
2018-11-25T01:04:37.254Z,8.23
2018-11-25T01:09:30.654Z,9.50
2018-11-25T01:14:24.024Z,7.50
2018-11-25T01:19:17.449Z,8.07
2018-11-25T01:24:10.844Z,7.53
2018-11-25T01:29:04.333Z,8.00
2018-11-25T01:33:57.713Z,7.73
2018-11-25T01:38:51.109Z,8.07
2018-11-25T01:43:44.516Z,7.60
2018-11-25T01:48:37.884Z,8.43
2018-11-25T01:59:24.947Z,7.60
2018-11-25T02:04:18.534Z,7.87
2018-11-25T02:09:11.908Z,8.27
2018-11-25T02:14:05.401Z,7.43
2018-11-25T02:18:58.781Z,7.37
2018-11-25T02:23:52.161Z,7.90
2018-11-25T02:28:45.606Z,7.20
2018-11-25T02:33:39.014Z,8.27
2018-11-25T02:38:32.433Z,7.83
2018-11-25T02:49:31.886Z,6.90
2018-11-25T02:54:25.261Z,8.03
2018-11-25T02:59:18.667Z,8.57
2018-11-25T03:04:12.050Z,7.93
2018-11-25T03:09:06.401Z,8.57
2018-11-25T03:13:59.788Z,7.77
2018-11-25T03:18:53.177Z,8.33
2018-11-25T03:23:46.567Z,8.70
2018-11-25T03:28:40.009Z,8.20
2018-11-25T03:33:33.391Z,8.60
2018-11-25T03:38:26.780Z,8.23
2018-11-25T03:43:20.228Z,8.90
2018-11-25T03:48:13.645Z,8.37
2018-11-25T03:53:07.038Z,8.40
2018-11-25T03:58:00.434Z,8.43
2018-11-25T04:02:54.187Z,9.30
2018-11-25T04:07:47.578Z,8.30
2018-11-25T04:12:40.954Z,9.03
2018-11-25T04:17:34.392Z,8.30
2018-11-25T04:22:27.999Z,9.20
2018-11-25T04:27:21.430Z,9.03
2018-11-25T04:32:14.819Z,8.87
2018-11-25T04:43:08.376Z,9.00
2018-11-25T04:48:01.774Z,8.70
2018-11-25T04:52:55.178Z,9.23
2018-11-25T04:57:52.120Z,9.23
2018-11-25T05:02:45.515Z,9.70
2018-11-25T05:07:38.943Z,9.83
2018-11-25T05:12:32.333Z,8.47
2018-11-25T05:17:25.711Z,9.50
2018-11-25T05:22:19.089Z,8.67
2018-11-25T05:27:12.504Z,8.67
2018-11-25T05:32:05.952Z,9.33
2018-11-25T05:36:59.349Z,8.80
2018-11-25T05:41:52.737Z,8.93
2018-11-25T05:46:46.131Z,8.90
2018-11-25T05:51:39.531Z,9.00
2018-11-25T05:56:32.919Z,8.10
2018-11-25T06:01:26.296Z,8.43
2018-11-25T06:06:19.678Z,8.53
2018-11-25T06:11:13.049Z,7.63
2018-11-25T06:16:06.450Z,8.68
2018-11-25T06:20:59.846Z,7.80
2018-11-25T06:31:59.224Z,9.10
2018-11-25T06:36:52.611Z,8.53
2018-11-25T06:41:45.992Z,8.27
2018-11-25T06:46:39.394Z,8.20
2018-11-25T06:51:32.780Z,8.30
2018-11-25T06:56:27.502Z,7.90
2018-11-25T07:01:19.566Z,8.33
2018-11-25T07:06:12.961Z,8.90
2018-11-25T07:11:06.390Z,9.10
2018-11-25T07:15:59.871Z,8.73
2018-11-25T07:20:53.301Z,8.10
2018-11-25T07:25:46.708Z,7.93
2018-11-25T07:30:40.166Z,8.63
2018-11-25T07:35:33.576Z,7.93
2018-11-25T07:40:26.964Z,8.70
2018-11-25T07:45:20.769Z,8.13
2018-11-25T07:50:14.242Z,8.37
2018-11-25T07:55:11.281Z,8.77
2018-11-25T08:06:10.331Z,8.37
2018-11-25T08:11:03.718Z,7.83
2018-11-25T08:15:57.109Z,8.40
2018-11-25T08:20:50.502Z,7.70
2018-11-25T08:25:43.883Z,7.23
2018-11-25T08:30:37.333Z,7.83
2018-11-25T08:35:30.725Z,7.77
2018-11-25T08:40:24.558Z,7.20
2018-11-25T08:45:17.941Z,7.37
2018-11-25T08:50:14.499Z,7.80
2018-11-25T08:55:08.642Z,7.60
2018-11-25T09:00:02.075Z,7.33
2018-11-25T09:04:55.471Z,6.97
2018-11-25T09:09:48.954Z,8.50
2018-11-25T09:14:42.358Z,6.77
2018-11-25T09:19:35.737Z,7.37
2018-11-25T09:24:29.133Z,6.83
2018-11-25T09:29:22.546Z,6.23
2018-11-25T09:34:15.996Z,6.73
2018-11-25T09:39:09.385Z,6.40
2018-11-25T09:44:02.792Z,6.57
2018-11-25T09:48:56.163Z,5.60
2018-11-25T09:53:49.567Z,6.37
2018-11-25T09:58:42.932Z,6.23
2018-11-25T10:03:36.330Z,7.47
2018-11-25T10:08:29.714Z,6.63
2018-11-25T10:13:23.099Z,6.30
2018-11-25T10:18:16.499Z,6.40
2018-11-25T10:23:09.885Z,6.77
2018-11-25T10:28:03.657Z,6.50
2018-11-25T10:33:00.419Z,6.13
2018-11-25T10:37:53.825Z,6.93
2018-11-25T10:42:47.210Z,7.23
2018-11-25T10:47:40.587Z,6.47
2018-11-25T10:52:33.966Z,6.90
2018-11-25T10:57:27.349Z,6.73
2018-11-25T11:02:38.700Z,6.43
2018-11-25T11:07:44.502Z,6.80
2018-11-25T11:12:37.949Z,6.37
2018-11-25T11:17:31.399Z,6.80
2018-11-25T11:22:24.877Z,5.93
2018-11-25T11:27:18.243Z,5.97
2018-11-25T11:32:11.710Z,6.60
2018-11-25T11:37:05.139Z,6.00
2018-11-25T11:41:58.521Z,6.47
2018-11-25T11:46:51.897Z,6.17
2018-11-25T11:51:45.300Z,6.60
2018-11-25T11:56:40.380Z,6.40
2018-11-25T12:01:32.083Z,6.20
2018-11-25T12:06:25.571Z,6.30
2018-11-25T12:11:19.027Z,5.97
2018-11-25T12:16:12.442Z,6.27
2018-11-25T12:21:06.111Z,6.07
2018-11-25T12:25:59.511Z,6.67
2018-11-25T12:30:52.890Z,6.80
2018-11-25T12:35:46.578Z,6.40
2018-11-25T12:40:40.028Z,6.37
2018-11-25T12:45:33.402Z,7.03
2018-11-25T12:50:26.888Z,7.43
2018-11-25T12:55:20.891Z,7.70
2018-11-25T13:00:15.532Z,6.80
2018-11-25T13:05:08.900Z,7.30
2018-11-25T13:10:02.285Z,7.13
2018-11-25T13:14:55.659Z,7.57
2018-11-25T13:19:49.057Z,7.00
2018-11-25T13:24:42.477Z,7.40
2018-11-25T13:29:35.885Z,7.03
2018-11-25T13:34:29.312Z,7.50
2018-11-25T13:39:22.700Z,7.97
2018-11-25T13:44:16.107Z,6.73
2018-11-25T13:49:09.513Z,6.97
2018-11-25T13:54:02.934Z,7.53
2018-11-25T13:58:56.344Z,7.37
2018-11-25T14:03:49.741Z,7.73
2018-11-25T14:14:49.196Z,7.60
2018-11-25T14:19:42.592Z,8.50
2018-11-25T14:24:36.011Z,8.83
2018-11-25T14:29:29.642Z,7.87
2018-11-25T14:34:23.021Z,8.13
2018-11-25T14:39:16.399Z,9.10
2018-11-25T14:44:10.073Z,8.80
2018-11-25T14:49:03.929Z,7.90
2018-11-25T14:53:57.321Z,8.37
2018-11-25T14:58:50.716Z,8.47
2018-11-25T15:03:44.152Z,8.73
2018-11-25T15:08:37.557Z,9.47
2018-11-25T15:13:30.972Z,9.67
2018-11-25T15:18:24.372Z,8.93
2018-11-25T15:23:17.743Z,8.20
2018-11-25T15:34:17.506Z,8.48
2018-11-25T15:39:11.304Z,8.90
2018-11-25T15:44:05.388Z,9.20
2018-11-25T15:48:58.857Z,9.30
2018-11-25T15:53:52.270Z,8.70
2018-11-25T15:58:45.752Z,8.30
2018-11-25T16:03:39.162Z,8.37
2018-11-25T16:08:38.064Z,8.17
2018-11-25T16:13:25.999Z,8.27
2018-11-25T16:18:19.391Z,8.13
2018-11-25T16:23:12.794Z,7.23
2018-11-25T16:28:16.042Z,8.27
2018-11-25T16:33:09.476Z,8.10
2018-11-25T16:38:02.882Z,7.83
2018-11-25T16:42:56.292Z,8.13
2018-11-25T16:47:49.700Z,7.47
2018-11-25T16:52:43.099Z,7.90
2018-11-25T16:57:36.491Z,8.07
2018-11-25T17:02:29.899Z,7.50
2018-11-25T17:07:23.321Z,8.10
2018-11-25T17:18:22.508Z,7.90
2018-11-25T17:23:15.907Z,7.87
2018-11-25T17:28:09.314Z,8.33
2018-11-25T17:33:02.770Z,7.97
2018-11-25T17:37:56.192Z,7.93
2018-11-25T17:42:49.639Z,7.83
2018-11-25T17:47:43.036Z,8.13
2018-11-25T17:52:36.438Z,9.03
2018-11-25T17:57:29.832Z,8.63
2018-11-25T18:02:23.273Z,9.13
2018-11-25T18:07:16.705Z,9.07
2018-11-25T18:12:10.141Z,9.63
2018-11-25T18:17:03.536Z,9.17
2018-11-25T18:22:22.159Z,9.20
2018-11-25T18:27:15.575Z,10.27
2018-11-25T18:32:08.978Z,9.93
2018-11-25T18:37:02.370Z,9.20
2018-11-25T18:41:55.813Z,9.20
2018-11-25T18:46:49.211Z,8.57
2018-11-25T18:51:42.618Z,9.17
2018-11-25T18:56:36.607Z,8.73
2018-11-25T19:01:31.915Z,9.60
2018-11-25T19:06:25.380Z,8.97
2018-11-25T19:11:18.884Z,8.90
2018-11-25T19:22:18.440Z,9.17
2018-11-25T19:27:11.873Z,8.80
2018-11-25T19:32:05.820Z,9.47
2018-11-25T19:36:59.224Z,9.27
2018-11-25T19:41:52.653Z,8.70
2018-11-25T19:46:46.058Z,8.97
2018-11-25T19:51:39.452Z,8.87
2018-11-25T19:56:32.839Z,9.67
2018-11-25T20:01:26.295Z,9.87
2018-11-25T20:06:19.693Z,9.93
2018-11-25T20:11:13.111Z,9.07
2018-11-25T20:16:24.471Z,9.13
2018-11-25T20:21:35.907Z,9.97
2018-11-25T20:26:29.345Z,9.43
2018-11-25T20:31:22.808Z,9.10
2018-11-25T20:36:16.205Z,9.47
2018-11-25T20:41:09.610Z,10.27
2018-11-25T20:46:21.033Z,9.03
2018-11-25T20:51:14.495Z,8.33
2018-11-25T20:56:07.890Z,9.70
2018-11-25T21:01:01.273Z,9.43
2018-11-25T21:05:54.702Z,10.30
2018-11-25T21:10:48.132Z,10.13
2018-11-25T21:15:41.510Z,8.97
2018-11-25T21:26:41.026Z,10.20
2018-11-25T21:31:34.497Z,9.70
2018-11-25T21:36:27.975Z,9.43
2018-11-25T21:41:21.389Z,9.73
2018-11-25T21:46:14.774Z,9.13
2018-11-25T21:51:08.212Z,9.63
2018-11-25T21:56:01.607Z,8.80
2018-11-25T22:00:54.995Z,9.63
2018-11-25T22:05:48.425Z,9.33
2018-11-25T22:10:41.801Z,8.37
2018-11-25T22:15:35.205Z,8.87
2018-11-25T22:20:28.578Z,8.63
2018-11-25T22:25:21.984Z,8.23
2018-11-25T22:30:16.048Z,8.17
2018-11-25T22:35:10.313Z,9.03
2018-11-25T22:40:03.827Z,8.97
2018-11-25T22:44:57.226Z,8.80
2018-11-25T22:49:50.652Z,8.27
2018-11-25T22:54:44.016Z,8.63
2018-11-25T22:59:37.510Z,8.43
2018-11-25T23:04:49.190Z,8.23
2018-11-25T23:09:42.521Z,8.27
2018-11-25T23:14:35.908Z,8.60
2018-11-25T23:19:29.299Z,9.00
2018-11-25T23:30:28.945Z,8.63
2018-11-25T23:35:23.401Z,8.17
2018-11-25T23:40:16.944Z,8.43
2018-11-25T23:45:14.020Z,8.43
2018-11-25T23:50:08.123Z,8.27
2018-11-25T23:55:01.507Z,8.07
2018-11-25T23:59:54.869Z,9.23
